Time;durP1;ratioP1;P1;durP2;ratioP2;P2;SDS_P1;SDS_P2;PMS_P1;PMS_P2;Temp;Humidity;BMP_temperature;BMP_pressure;BME280_temperature;BME280_humidity;BME280_pressure;Samples;Min_cycle;Max_cycle;Signal;HPM_P1;HPM_P2
2021/01/25 00:02:02;;;;;;;4.27;3.00;;;1.20;99.90;;;;;;4965157;28;20185;-77
2021/01/25 00:04:28;;;;;;;3.10;2.23;;;1.30;99.90;;;;;;4965813;28;20196;-77
2021/01/25 00:06:54;;;;;;;3.83;2.33;;;1.30;99.90;;;;;;4966088;28;20189;-77
2021/01/25 00:09:19;;;;;;;4.50;3.63;;;1.20;99.90;;;;;;4963683;28;20188;-77
2021/01/25 00:11:45;;;;;;;4.50;3.67;;;1.20;99.90;;;;;;4965520;28;20609;-77
2021/01/25 00:14:10;;;;;;;5.73;4.00;;;1.20;99.90;;;;;;4966103;28;20251;-77
2021/01/25 00:16:36;;;;;;;6.47;3.83;;;1.10;99.90;;;;;;4965853;28;20239;-77
2021/01/25 00:19:01;;;;;;;4.60;3.50;;;1.00;99.90;;;;;;4966321;28;20185;-77
2021/01/25 00:21:27;;;;;;;4.03;3.13;;;0.90;99.90;;;;;;4966516;28;20212;-77
2021/01/25 00:23:53;;;;;;;5.23;3.67;;;0.70;99.90;;;;;;4966335;28;20248;-77
2021/01/25 00:26:19;;;;;;;4.13;2.97;;;0.60;99.90;;;;;;4964560;28;20189;-76
2021/01/25 00:28:45;;;;;;;5.10;3.83;;;0.60;99.90;;;;;;4964663;28;20299;-77
2021/01/25 00:31:10;;;;;;;3.80;2.97;;;0.50;99.90;;;;;;4965544;28;20296;-76
2021/01/25 00:33:36;;;;;;;4.47;3.50;;;0.50;99.90;;;;;;4965748;28;20590;-76
2021/01/25 00:36:02;;;;;;;3.47;2.23;;;0.50;99.90;;;;;;4965990;28;20248;-77
2021/01/25 00:38:27;;;;;;;4.63;3.57;;;0.50;99.90;;;;;;4965804;28;20588;-76
2021/01/25 00:40:53;;;;;;;6.50;4.83;;;0.40;99.90;;;;;;4962208;28;20204;-77
2021/01/25 00:43:18;;;;;;;4.27;3.03;;;0.50;99.90;;;;;;4964296;28;20185;-77
2021/01/25 00:45:44;;;;;;;4.17;3.23;;;0.40;99.90;;;;;;4964066;28;20289;-77
2021/01/25 00:48:10;;;;;;;5.57;4.07;;;0.40;99.90;;;;;;4964139;28;20197;-76
2021/01/25 00:50:35;;;;;;;5.33;3.57;;;0.50;99.90;;;;;;4963819;28;20220;-77
2021/01/25 00:53:01;;;;;;;5.10;3.93;;;0.50;99.90;;;;;;4963946;28;20181;-77
2021/01/25 00:55:26;;;;;;;5.23;4.20;;;0.50;99.90;;;;;;4964800;28;20196;-77
2021/01/25 00:57:52;;;;;;;4.00;3.23;;;0.50;99.90;;;;;;4965001;28;20185;-76
2021/01/25 01:00:18;;;;;;;4.87;3.43;;;0.60;99.90;;;;;;4963499;28;20259;-76
2021/01/25 01:02:44;;;;;;;6.47;3.93;;;0.50;99.90;;;;;;4964987;28;20189;-77
2021/01/25 01:05:10;;;;;;;5.00;3.83;;;0.50;99.90;;;;;;4965387;28;20243;-77
2021/01/25 01:07:36;;;;;;;6.00;3.73;;;0.50;99.90;;;;;;4963978;28;20227;-77
2021/01/25 01:10:04;;;;;;;6.57;4.43;;;0.40;99.90;;;;;;4965004;28;20232;-77
2021/01/25 01:12:30;;;;;;;4.87;3.67;;;0.40;99.90;;;;;;4965412;28;20671;-77
2021/01/25 01:14:55;;;;;;;4.10;3.40;;;0.30;99.90;;;;;;4965450;28;20208;-77
2021/01/25 01:17:21;;;;;;;3.77;3.27;;;0.30;99.90;;;;;;4965937;28;20212;-77
2021/01/25 01:19:46;;;;;;;7.90;4.83;;;0.20;99.90;;;;;;4965416;28;20184;-77
2021/01/25 01:22:12;;;;;;;5.03;4.10;;;0.20;99.90;;;;;;4964165;28;20181;-77
2021/01/25 01:24:37;;;;;;;5.77;4.10;;;0.20;99.90;;;;;;4965557;28;20185;-77
2021/01/25 01:27:04;;;;;;;5.63;3.93;;;0.20;99.90;;;;;;4965917;28;20184;-77
2021/01/25 01:29:29;;;;;;;5.17;4.07;;;0.20;99.90;;;;;;4963993;28;20288;-77
2021/01/25 01:31:55;;;;;;;5.73;4.10;;;0.30;99.90;;;;;;4965243;28;21181;-77
2021/01/25 01:34:20;;;;;;;6.90;3.97;;;0.30;99.90;;;;;;4965966;28;20211;-77
2021/01/25 01:36:46;;;;;;;3.80;3.43;;;0.40;99.90;;;;;;4965652;28;20185;-77
2021/01/25 01:39:12;;;;;;;6.70;4.33;;;0.30;99.90;;;;;;4965469;28;20181;-77
2021/01/25 01:41:38;;;;;;;5.63;4.03;;;0.30;99.90;;;;;;4965409;28;20296;-76
2021/01/25 01:44:05;;;;;;;6.70;4.27;;;0.20;99.90;;;;;;4965800;28;20255;-77
2021/01/25 01:46:31;;;;;;;10.77;4.23;;;0.20;99.90;;;;;;4964923;28;20189;-77
2021/01/25 01:48:58;;;;;;;4.10;3.03;;;0.10;99.90;;;;;;4965204;28;21124;-77
2021/01/25 01:51:24;;;;;;;4.70;3.80;;;0.10;99.90;;;;;;4965324;28;21247;-77
2021/01/25 01:53:49;;;;;;;4.67;3.60;;;0.00;99.90;;;;;;4964874;28;20188;-77
2021/01/25 01:56:15;;;;;;;6.00;4.53;;;0.00;99.90;;;;;;4963766;28;20279;-77
2021/01/25 01:58:41;;;;;;;6.33;4.03;;;0.00;99.90;;;;;;4964940;28;20301;-77
2021/01/25 02:01:06;;;;;;;6.00;4.30;;;0.00;99.90;;;;;;4964876;28;20208;-77
2021/01/25 02:03:32;;;;;;;5.20;3.37;;;-0.10;99.90;;;;;;4964682;28;20193;-76
2021/01/25 02:05:59;;;;;;;6.27;4.67;;;-0.10;99.90;;;;;;4964694;28;20208;-76
2021/01/25 02:08:25;;;;;;;7.27;4.43;;;0.00;99.90;;;;;;4964368;28;20180;-77
2021/01/25 02:10:54;;;;;;;4.27;3.60;;;-0.10;99.90;;;;;;4964753;28;20212;-76
2021/01/25 02:13:21;;;;;;;4.97;3.77;;;-0.10;99.90;;;;;;4964778;28;20177;-77
2021/01/25 02:15:46;;;;;;;5.67;3.77;;;-0.10;99.90;;;;;;4964488;28;20193;-77
2021/01/25 02:18:12;;;;;;;7.43;3.93;;;-0.10;99.90;;;;;;4964121;28;20722;-77
2021/01/25 02:20:42;;;;;;;5.40;4.20;;;-0.10;99.90;;;;;;4964079;28;20297;-77
2021/01/25 02:23:28;;;;;;;4.03;3.40;;;0.00;99.90;;;;;;4964147;28;20185;-77
2021/01/25 02:26:07;;;;;;;3.40;3.10;;;0.00;99.90;;;;;;4962814;28;20181;-77
2021/01/25 02:28:35;;;;;;;7.77;4.67;;;0.00;99.90;;;;;;4962931;28;20231;-77
2021/01/25 02:31:03;;;;;;;3.77;2.80;;;0.00;99.90;;;;;;4962345;28;20553;-77
2021/01/25 02:33:31;;;;;;;6.20;4.47;;;-0.10;99.90;;;;;;4964168;28;20256;-77
2021/01/25 02:35:59;;;;;;;7.60;4.53;;;-0.10;99.90;;;;;;4964469;28;20574;-76
2021/01/25 02:38:26;;;;;;;3.63;2.93;;;-0.10;99.90;;;;;;4964175;28;20177;-77
2021/01/25 02:40:53;;;;;;;7.50;5.13;;;-0.10;99.90;;;;;;4963851;28;20200;-76
2021/01/25 02:43:20;;;;;;;6.10;4.80;;;-0.10;99.90;;;;;;4964029;28;20181;-77
2021/01/25 02:45:47;;;;;;;4.30;3.37;;;0.00;99.90;;;;;;4964077;28;20215;-77
2021/01/25 02:48:13;;;;;;;5.63;4.17;;;0.00;99.90;;;;;;4964301;28;20188;-77
2021/01/25 02:50:38;;;;;;;4.10;3.47;;;0.10;99.90;;;;;;4963801;28;20220;-77
2021/01/25 02:53:04;;;;;;;4.50;2.97;;;0.10;99.90;;;;;;4964160;28;20220;-77
2021/01/25 02:55:32;;;;;;;4.10;2.77;;;0.20;99.90;;;;;;4963953;28;20195;-77
2021/01/25 02:57:59;;;;;;;4.83;3.23;;;0.20;99.90;;;;;;4964072;28;20177;-76
2021/01/25 03:00:24;;;;;;;4.63;3.17;;;0.10;99.90;;;;;;4963834;28;20559;-77
2021/01/25 03:02:52;;;;;;;4.67;3.17;;;0.10;99.90;;;;;;4964925;28;20285;-76
2021/01/25 03:05:18;;;;;;;6.47;3.70;;;0.20;99.90;;;;;;4966280;28;20180;-77
2021/01/25 03:07:44;;;;;;;4.93;3.60;;;0.10;99.90;;;;;;4967367;28;20708;-77
2021/01/25 03:10:10;;;;;;;4.60;3.40;;;0.10;99.90;;;;;;4965219;28;20200;-76
2021/01/25 03:12:36;;;;;;;4.93;3.20;;;0.10;99.90;;;;;;4966772;28;20279;-77
2021/01/25 03:15:01;;;;;;;7.20;4.03;;;0.20;99.90;;;;;;4967082;28;20292;-77
2021/01/25 03:17:27;;;;;;;4.47;3.10;;;0.20;99.90;;;;;;4967628;28;20181;-77
2021/01/25 03:19:52;;;;;;;5.73;3.27;;;0.30;99.90;;;;;;4966667;28;20205;-76
2021/01/25 03:22:18;;;;;;;4.77;3.23;;;0.40;99.90;;;;;;4967189;28;20714;-77
2021/01/25 03:24:44;;;;;;;4.97;3.33;;;0.30;99.90;;;;;;4966989;28;20275;-77
2021/01/25 03:27:09;;;;;;;5.73;3.53;;;0.40;99.90;;;;;;4965772;28;20192;-77
2021/01/25 03:29:35;;;;;;;5.97;3.93;;;0.50;99.90;;;;;;4966494;28;20200;-77
2021/01/25 03:32:01;;;;;;;3.83;3.40;;;0.50;99.90;;;;;;4966091;28;20296;-76
2021/01/25 03:34:26;;;;;;;3.83;3.13;;;0.50;99.90;;;;;;4966916;28;20269;-77
2021/01/25 03:36:52;;;;;;;4.70;3.53;;;0.50;99.90;;;;;;4967054;28;20224;-77
2021/01/25 03:39:18;;;;;;;4.60;3.57;;;0.50;99.90;;;;;;4966488;28;20181;-77
2021/01/25 03:41:46;;;;;;;3.57;2.27;;;0.50;99.90;;;;;;4964999;28;20200;-76
2021/01/25 03:44:11;;;;;;;4.07;3.57;;;0.60;99.90;;;;;;4966428;28;20185;-76
2021/01/25 03:46:37;;;;;;;5.23;3.87;;;0.60;99.90;;;;;;4969623;28;20181;-77
2021/01/25 03:49:03;;;;;;;5.93;2.93;;;0.60;99.90;;;;;;4969619;28;20185;-77
2021/01/25 03:51:28;;;;;;;6.00;3.60;;;0.70;99.90;;;;;;4969598;28;20231;-76
2021/01/25 03:53:54;;;;;;;5.53;3.63;;;0.70;99.90;;;;;;4967639;28;20197;-77
2021/01/25 03:56:19;;;;;;;4.17;3.13;;;0.70;99.90;;;;;;4965867;28;20215;-74
2021/01/25 03:58:45;;;;;;;5.97;3.20;;;0.70;99.90;;;;;;4965269;28;20212;-77
2021/01/25 04:01:10;;;;;;;3.67;3.20;;;0.70;99.90;;;;;;4966359;28;20270;-77
2021/01/25 04:03:36;;;;;;;6.33;3.57;;;0.70;99.90;;;;;;4966416;28;20658;-76
2021/01/25 04:06:02;;;;;;;2.93;2.37;;;0.70;99.90;;;;;;4966558;28;20677;-77
2021/01/25 04:08:28;;;;;;;6.47;3.73;;;0.70;99.90;;;;;;4966124;28;20383;-77
2021/01/25 04:10:53;;;;;;;4.07;2.80;;;0.70;99.90;;;;;;4965896;28;20235;-77
2021/01/25 04:13:19;;;;;;;3.67;2.87;;;0.80;99.90;;;;;;4965747;28;20192;-77
2021/01/25 04:15:44;;;;;;;3.53;2.70;;;0.80;99.90;;;;;;4963675;28;20693;-77
2021/01/25 04:18:10;;;;;;;3.07;2.27;;;0.90;99.90;;;;;;4966326;28;20597;-77
2021/01/25 04:20:36;;;;;;;3.00;2.37;;;0.90;99.90;;;;;;4965380;28;20232;-75
2021/01/25 04:23:01;;;;;;;4.83;2.80;;;0.90;99.90;;;;;;4965632;28;20177;-76
2021/01/25 04:25:27;;;;;;;2.73;2.30;;;0.90;99.90;;;;;;4965773;28;20177;-77
2021/01/25 04:27:52;;;;;;;4.03;3.10;;;0.90;99.90;;;;;;4965759;28;20181;-76
2021/01/25 04:30:19;;;;;;;5.50;2.57;;;0.90;99.90;;;;;;4964820;28;20209;-77
2021/01/25 04:32:44;;;;;;;6.43;3.27;;;0.90;99.90;;;;;;4966308;28;20274;-77
2021/01/25 04:35:13;;;;;;;3.17;2.17;;;0.90;99.90;;;;;;4966108;28;20635;-77
2021/01/25 04:37:40;;;;;;;4.63;2.90;;;0.90;99.90;;;;;;4966125;28;20212;-77
2021/01/25 04:40:07;;;;;;;3.83;2.77;;;0.90;99.90;;;;;;4963939;28;20197;-77
2021/01/25 04:42:33;;;;;;;3.10;2.47;;;0.90;99.90;;;;;;4966006;28;20193;-77
2021/01/25 04:44:59;;;;;;;6.40;2.87;;;0.80;99.90;;;;;;4966126;28;20224;-77
2021/01/25 04:47:26;;;;;;;3.30;1.87;;;0.70;99.90;;;;;;4966080;28;20185;-77
2021/01/25 04:49:52;;;;;;;3.90;3.13;;;0.70;99.90;;;;;;4965555;28;21188;-77
2021/01/25 04:52:18;;;;;;;2.50;2.10;;;0.70;99.90;;;;;;4964477;28;20215;-77
2021/01/25 04:54:48;;;;;;;3.27;2.43;;;0.70;99.90;;;;;;4965513;28;20199;-77
2021/01/25 04:57:15;;;;;;;3.40;2.37;;;0.70;99.90;;;;;;4965893;28;20228;-77
2021/01/25 04:59:43;;;;;;;3.50;2.43;;;0.70;99.90;;;;;;4965099;28;20746;-76
2021/01/25 05:02:09;;;;;;;5.00;2.90;;;0.70;99.90;;;;;;4965483;28;20181;-77
2021/01/25 05:04:35;;;;;;;2.93;2.47;;;0.80;99.90;;;;;;4965209;28;20188;-76
2021/01/25 05:07:00;;;;;;;3.17;2.20;;;0.90;99.90;;;;;;4963823;28;20185;-76
2021/01/25 05:09:26;;;;;;;4.00;2.87;;;0.80;99.90;;;;;;4965247;28;20601;-77
2021/01/25 05:11:59;;;;;;;4.13;2.93;;;0.80;99.90;;;;;;4965105;28;20212;-77
2021/01/25 05:14:35;;;;;;;3.90;2.97;;;0.80;99.90;;;;;;4964989;28;20217;-77
2021/01/25 05:17:09;;;;;;;4.17;2.63;;;0.80;99.90;;;;;;4965377;28;20181;-76
2021/01/25 05:19:36;;;;;;;3.03;2.33;;;0.80;99.90;;;;;;4964456;28;20271;-77
2021/01/25 05:22:07;;;;;;;3.00;2.20;;;0.70;99.90;;;;;;4965510;28;20185;-77
2021/01/25 05:24:43;;;;;;;2.57;2.17;;;0.70;99.90;;;;;;4965237;28;21207;-77
2021/01/25 05:27:08;;;;;;;4.27;2.30;;;0.60;99.90;;;;;;4964762;28;20734;-77
2021/01/25 05:29:34;;;;;;;3.07;1.73;;;0.70;99.90;;;;;;4962814;28;20295;-77
2021/01/25 05:31:59;;;;;;;6.80;2.13;;;0.60;99.90;;;;;;4965015;28;20260;-76
2021/01/25 05:34:25;;;;;;;3.47;2.27;;;0.60;99.90;;;;;;4964729;28;20181;-77
2021/01/25 05:36:50;;;;;;;3.30;2.23;;;0.80;99.90;;;;;;4964943;28;20180;-76
2021/01/25 05:39:18;;;;;;;4.00;2.43;;;0.70;99.90;;;;;;4964105;28;20260;-77
2021/01/25 05:41:57;;;;;;;3.80;2.37;;;0.70;99.90;;;;;;4964459;28;20205;-77
2021/01/25 05:44:23;;;;;;;1.70;1.60;;;0.60;99.90;;;;;;4963709;28;20235;-76
2021/01/25 05:46:49;;;;;;;1.90;1.47;;;0.60;99.90;;;;;;4963800;28;20181;-77
2021/01/25 05:49:25;;;;;;;3.33;2.17;;;0.40;99.90;;;;;;4962843;28;20246;-76
2021/01/25 05:51:53;;;;;;;3.40;2.53;;;0.30;99.90;;;;;;4962975;28;20204;-77
2021/01/25 05:54:21;;;;;;;3.00;1.83;;;0.30;99.90;;;;;;4963554;28;20189;-76
2021/01/25 05:56:47;;;;;;;3.70;2.67;;;0.20;99.90;;;;;;4963524;28;20283;-77
2021/01/25 05:59:12;;;;;;;5.97;2.03;;;0.10;99.90;;;;;;4964064;28;20331;-76
2021/01/25 06:01:38;;;;;;;3.07;2.27;;;0.10;99.90;;;;;;4962911;28;20212;-76
2021/01/25 06:04:06;;;;;;;4.77;2.80;;;0.00;99.90;;;;;;4964209;28;20671;-77
2021/01/25 06:06:35;;;;;;;4.27;3.27;;;0.00;99.90;;;;;;4964090;28;20180;-77
2021/01/25 06:09:26;;;;;;;3.03;2.03;;;-0.10;99.90;;;;;;4964153;28;20188;-77
2021/01/25 06:11:57;;;;;;;2.57;1.70;;;-0.10;99.90;;;;;;4963973;28;20216;-77
2021/01/25 06:14:32;;;;;;;3.73;2.60;;;-0.10;99.90;;;;;;4964256;28;20197;-76
2021/01/25 06:16:58;;;;;;;3.07;2.20;;;-0.10;99.90;;;;;;4964514;28;20608;-76
2021/01/25 06:19:28;;;;;;;4.70;2.27;;;-0.10;99.90;;;;;;4962561;28;20212;-76
2021/01/25 06:21:54;;;;;;;5.07;2.50;;;-0.20;99.90;;;;;;4963904;28;20267;-76
2021/01/25 06:24:22;;;;;;;4.00;3.10;;;-0.20;99.90;;;;;;4964208;28;20647;-77
2021/01/25 06:26:49;;;;;;;5.30;2.90;;;-0.30;99.90;;;;;;4962911;28;20558;-77
2021/01/25 06:29:20;;;;;;;4.07;2.57;;;-0.30;99.90;;;;;;4963506;28;20271;-76
2021/01/25 06:31:54;;;;;;;3.27;2.40;;;-0.30;99.90;;;;;;4963318;28;20212;-76
2021/01/25 06:34:20;;;;;;;4.20;3.13;;;-0.40;99.90;;;;;;4964104;28;20185;-76
2021/01/25 06:36:49;;;;;;;4.80;3.30;;;-0.50;99.90;;;;;;4963581;28;20181;-77
2021/01/25 06:39:23;;;;;;;3.83;2.87;;;-0.60;99.90;;;;;;4965350;28;20213;-76
2021/01/25 06:41:49;;;;;;;3.17;2.30;;;-0.70;99.90;;;;;;4967287;28;20219;-76
2021/01/25 06:44:15;;;;;;;3.53;2.60;;;-0.70;99.90;;;;;;4967373;28;20189;-76
2021/01/25 06:46:41;;;;;;;3.13;2.50;;;-0.80;99.90;;;;;;4966115;28;20247;-76
2021/01/25 06:49:08;;;;;;;2.80;1.93;;;-0.80;99.90;;;;;;4967031;28;20659;-76
2021/01/25 06:51:42;;;;;;;3.47;2.57;;;-0.90;99.90;;;;;;4965459;28;20258;-76
2021/01/25 06:54:11;;;;;;;4.23;2.40;;;-1.00;99.90;;;;;;4966973;28;20181;-77
2021/01/25 06:56:44;;;;;;;7.47;5.00;;;-1.00;99.90;;;;;;4967064;28;20259;-76
2021/01/25 06:59:11;;;;;;;3.43;2.53;;;-1.00;99.90;;;;;;4966778;28;20185;-77
2021/01/25 07:01:39;;;;;;;3.40;2.60;;;-0.90;99.90;;;;;;4966781;28;20690;-76
2021/01/25 07:04:13;;;;;;;3.30;2.50;;;-0.90;99.90;;;;;;4959792;28;20192;-76
2021/01/25 07:06:38;;;;;;;3.47;2.67;;;-0.90;99.90;;;;;;4964611;28;20188;-76
2021/01/25 07:09:06;;;;;;;4.80;3.27;;;-0.90;99.90;;;;;;4966324;28;20184;-76
2021/01/25 07:11:33;;;;;;;6.43;3.10;;;-0.90;99.90;;;;;;4964518;28;20212;-77
2021/01/25 07:13:59;;;;;;;9.87;5.70;;;-0.90;99.90;;;;;;4966460;28;20690;-77
2021/01/25 07:16:26;;;;;;;4.23;2.83;;;-1.00;99.90;;;;;;4965820;28;20192;-76
2021/01/25 07:18:53;;;;;;;7.33;4.00;;;-1.00;99.90;;;;;;4964949;28;20185;-76
2021/01/25 07:21:20;;;;;;;3.60;2.67;;;-0.90;99.90;;;;;;4965967;28;20235;-77
2021/01/25 07:23:47;;;;;;;8.37;3.67;;;-0.90;99.90;;;;;;4964740;28;20235;-76
2021/01/25 07:26:14;;;;;;;6.87;4.13;;;-0.80;99.90;;;;;;4965847;28;20186;-76
2021/01/25 07:28:41;;;;;;;9.73;5.37;;;-0.80;99.90;;;;;;4966145;28;20235;-76
2021/01/25 07:31:08;;;;;;;8.60;5.57;;;-0.90;99.90;;;;;;4965850;28;20213;-76
2021/01/25 07:33:34;;;;;;;6.90;4.07;;;-0.80;99.90;;;;;;4965866;28;20185;-76
2021/01/25 07:36:00;;;;;;;6.27;4.67;;;-0.70;99.90;;;;;;4966051;28;20201;-75
2021/01/25 07:38:28;;;;;;;4.20;3.20;;;-0.70;99.90;;;;;;4965637;28;20280;-76
2021/01/25 07:40:57;;;;;;;2.97;1.97;;;-0.70;99.90;;;;;;4964245;28;20208;-76
2021/01/25 07:43:25;;;;;;;4.70;3.73;;;-0.70;99.90;;;;;;4965843;28;20177;-76
2021/01/25 07:45:52;;;;;;;4.93;3.30;;;-0.70;99.90;;;;;;4965558;28;20253;-76
2021/01/25 07:48:18;;;;;;;4.20;2.43;;;-0.60;99.90;;;;;;4965161;28;20209;-76
2021/01/25 07:51:02;;;;;;;2.93;2.33;;;-0.60;99.90;;;;;;4963903;28;20227;-76
2021/01/25 07:53:34;;;;;;;3.97;3.00;;;-0.50;99.90;;;;;;4963962;28;20212;-76
2021/01/25 07:56:00;;;;;;;10.53;5.57;;;-0.50;99.90;;;;;;4963648;28;20647;-76
2021/01/25 07:58:26;;;;;;;7.17;4.53;;;-0.40;99.90;;;;;;4961805;28;20196;-76
2021/01/25 08:00:51;;;;;;;10.13;6.10;;;-0.40;99.90;;;;;;4963887;28;20802;-76
2021/01/25 08:03:31;;;;;;;8.30;5.53;;;-0.30;99.90;;;;;;4963088;28;20185;-76
2021/01/25 08:06:05;;;;;;;7.40;4.13;;;-0.20;99.90;;;;;;4963652;28;20188;-77
2021/01/25 08:08:32;;;;;;;8.43;4.73;;;-0.20;99.90;;;;;;4963786;28;20228;-76
2021/01/25 08:10:58;;;;;;;6.80;4.53;;;-0.10;99.90;;;;;;4961347;28;20223;-76
2021/01/25 08:13:27;;;;;;;7.47;4.57;;;0.00;99.90;;;;;;4963529;28;20181;-76
2021/01/25 08:16:09;;;;;;;14.23;8.33;;;0.10;99.90;;;;;;4961238;28;20200;-76
2021/01/25 08:18:50;;;;;;;5.27;3.57;;;0.20;99.90;;;;;;4963542;28;20195;-76
2021/01/25 08:21:22;;;;;;;4.00;3.40;;;0.30;99.90;;;;;;4961725;28;20204;-76
2021/01/25 08:23:51;;;;;;;5.13;3.33;;;0.30;99.90;;;;;;4963172;28;20185;-76
2021/01/25 08:26:25;;;;;;;9.77;4.83;;;0.40;99.90;;;;;;4962347;28;20189;-76
2021/01/25 08:28:58;;;;;;;5.40;2.93;;;0.50;99.90;;;;;;4963754;28;20275;-76
2021/01/25 08:31:44;;;;;;;7.13;4.33;;;0.60;99.90;;;;;;4961940;28;20216;-76
2021/01/25 08:34:31;;;;;;;78.63;39.93;;;0.60;99.90;;;;;;4962472;28;20184;-77
2021/01/25 08:37:02;;;;;;;15.67;8.47;;;0.60;99.90;;;;;;4962317;28;20702;-76
2021/01/25 08:39:39;;;;;;;6.10;4.47;;;0.70;99.90;;;;;;4960940;28;20660;-77
2021/01/25 08:42:12;;;;;;;5.60;4.37;;;0.70;99.90;;;;;;4960942;28;20231;-76
2021/01/25 08:44:46;;;;;;;6.53;4.00;;;0.70;99.90;;;;;;4961253;28;20193;-76
2021/01/25 08:47:14;;;;;;;3.87;2.87;;;0.80;99.90;;;;;;4961901;28;20691;-76
2021/01/25 08:49:41;;;;;;;3.63;3.00;;;0.80;99.90;;;;;;4961536;28;20255;-76
2021/01/25 08:52:30;;;;;;;4.57;3.27;;;0.80;99.90;;;;;;4962353;28;20673;-76
2021/01/25 08:55:24;;;;;;;7.80;4.00;;;0.90;99.90;;;;;;4962871;28;20193;-77
2021/01/25 08:57:50;;;;;;;8.57;6.63;;;0.90;99.90;;;;;;4962687;28;20236;-76
2021/01/25 09:00:32;;;;;;;7.10;4.97;;;1.00;99.90;;;;;;4962364;28;20208;-76
2021/01/25 09:03:03;;;;;;;5.20;4.33;;;1.00;99.90;;;;;;4961715;28;20184;-76
2021/01/25 09:05:30;;;;;;;5.23;3.87;;;1.10;99.90;;;;;;4961568;28;20220;-77
2021/01/25 09:07:55;;;;;;;4.93;3.10;;;1.20;99.90;;;;;;4962066;28;20189;-77
2021/01/25 09:10:22;;;;;;;5.03;3.17;;;1.30;99.90;;;;;;4965612;28;20205;-76
2021/01/25 09:12:47;;;;;;;7.07;4.30;;;1.30;99.90;;;;;;4963246;28;20254;-77
2021/01/25 09:15:17;;;;;;;6.03;4.20;;;1.40;99.90;;;;;;4962268;28;20208;-77
2021/01/25 09:17:42;;;;;;;5.77;4.93;;;1.40;99.90;;;;;;4963606;28;20189;-77
2021/01/25 09:20:09;;;;;;;6.57;4.77;;;1.50;99.90;;;;;;4963005;28;20279;-76
2021/01/25 09:22:35;;;;;;;6.70;4.20;;;1.60;99.90;;;;;;4961006;28;20197;-77
2021/01/25 09:25:01;;;;;;;6.13;4.40;;;1.60;99.90;;;;;;4961602;28;20235;-77
2021/01/25 09:27:27;;;;;;;5.80;4.43;;;1.60;99.90;;;;;;4963505;28;20193;-77
2021/01/25 09:29:52;;;;;;;4.87;3.70;;;1.70;99.90;;;;;;4962869;28;20212;-77
2021/01/25 09:32:18;;;;;;;4.20;3.40;;;1.70;99.90;;;;;;4963265;28;20219;-77
2021/01/25 09:34:44;;;;;;;5.13;2.93;;;1.80;99.90;;;;;;4963319;28;20219;-77
2021/01/25 09:37:10;;;;;;;2.90;2.23;;;1.90;99.90;;;;;;4963359;28;20591;-77
2021/01/25 09:39:37;;;;;;;3.47;2.00;;;2.10;99.90;;;;;;4961328;28;20304;-77
2021/01/25 09:42:04;;;;;;;3.20;2.50;;;2.20;99.90;;;;;;4962862;28;20200;-77
2021/01/25 09:44:30;;;;;;;3.37;2.47;;;2.40;99.90;;;;;;4962944;28;20200;-76
2021/01/25 09:46:56;;;;;;;4.53;2.77;;;2.60;99.90;;;;;;4962988;28;20372;-76
2021/01/25 09:49:23;;;;;;;2.90;1.70;;;2.80;99.90;;;;;;4961491;28;20239;-77
2021/01/25 09:51:48;;;;;;;3.30;2.33;;;2.90;99.90;;;;;;4962663;28;20239;-77
2021/01/25 09:54:14;;;;;;;3.93;2.70;;;2.90;99.90;;;;;;4963214;28;20212;-76
2021/01/25 09:56:40;;;;;;;2.40;2.13;;;3.10;99.90;;;;;;4961306;28;20220;-77
2021/01/25 09:59:05;;;;;;;5.20;2.90;;;3.40;99.90;;;;;;4961427;28;20188;-77
2021/01/25 10:01:31;;;;;;;2.77;2.20;;;3.70;99.90;;;;;;4960422;28;20204;-77
2021/01/25 10:03:57;;;;;;;3.93;2.27;;;3.80;99.90;;;;;;4960972;28;20856;-77
2021/01/25 10:06:23;;;;;;;2.30;2.03;;;3.80;99.90;;;;;;4960764;28;20185;-77
2021/01/25 10:08:48;;;;;;;3.53;2.40;;;3.80;99.90;;;;;;4959137;28;20275;-76
2021/01/25 10:11:15;;;;;;;3.07;2.03;;;3.90;99.90;;;;;;4958779;28;20222;-77
2021/01/25 10:13:41;;;;;;;3.17;2.43;;;3.90;99.90;;;;;;4940079;28;20658;-77
2021/01/25 10:16:07;;;;;;;3.20;2.50;;;3.90;99.90;;;;;;4933517;28;20204;-76
2021/01/25 10:18:33;;;;;;;3.60;2.60;;;4.00;99.90;;;;;;4864542;28;20869;-76
2021/01/25 10:20:59;;;;;;;3.97;2.70;;;4.10;99.90;;;;;;4904793;28;20796;-76
2021/01/25 10:23:25;;;;;;;2.63;2.10;;;4.10;99.90;;;;;;4931831;28;20272;-76
2021/01/25 10:25:51;;;;;;;2.03;1.70;;;4.10;99.90;;;;;;4951258;28;20188;-77
2021/01/25 10:28:18;;;;;;;2.10;1.67;;;4.20;99.90;;;;;;4954472;28;20192;-77
2021/01/25 10:30:45;;;;;;;3.43;2.87;;;4.20;99.90;;;;;;4959409;28;20372;-77
2021/01/25 10:33:10;;;;;;;4.00;2.40;;;4.40;99.90;;;;;;4966135;28;20549;-76
2021/01/25 10:35:36;;;;;;;2.97;2.20;;;4.50;99.90;;;;;;4964455;28;20199;-76
2021/01/25 10:38:02;;;;;;;2.70;1.80;;;4.40;99.90;;;;;;4962455;28;20295;-76
2021/01/25 10:40:28;;;;;;;6.90;3.30;;;4.50;99.90;;;;;;4965546;28;20243;-76
2021/01/25 10:42:55;;;;;;;4.73;3.07;;;4.60;99.90;;;;;;4964158;28;20196;-76
2021/01/25 10:45:21;;;;;;;2.50;2.00;;;4.50;99.90;;;;;;4963419;28;20189;-76
2021/01/25 10:47:47;;;;;;;3.30;2.73;;;4.60;99.90;;;;;;4963172;28;20236;-76
2021/01/25 10:50:13;;;;;;;3.53;2.03;;;4.50;99.90;;;;;;4963027;28;20235;-77
2021/01/25 10:52:40;;;;;;;3.50;2.70;;;4.50;99.90;;;;;;4963318;28;20227;-76
2021/01/25 10:55:06;;;;;;;6.37;2.77;;;4.40;99.90;;;;;;4960800;28;20284;-77
2021/01/25 10:57:33;;;;;;;4.53;2.50;;;4.30;99.90;;;;;;4962100;28;20188;-77
2021/01/25 11:00:14;;;;;;;3.93;2.30;;;4.30;99.90;;;;;;4963261;28;20484;-76
2021/01/25 11:02:40;;;;;;;3.37;2.43;;;4.30;99.90;;;;;;4963505;28;20191;-76
2021/01/25 11:05:09;;;;;;;3.17;2.50;;;4.30;99.90;;;;;;4963087;28;20192;-77
2021/01/25 11:07:38;;;;;;;2.93;2.13;;;4.20;99.90;;;;;;4965873;28;20659;-77
2021/01/25 11:10:05;;;;;;;6.17;2.83;;;4.10;99.90;;;;;;4964911;28;20283;-76
2021/01/25 11:12:31;;;;;;;5.37;3.07;;;4.00;99.90;;;;;;4962012;28;20216;-76
2021/01/25 11:14:56;;;;;;;3.93;3.00;;;3.80;99.90;;;;;;4959264;28;20233;-76
2021/01/25 11:17:22;;;;;;;3.90;2.60;;;3.70;99.90;;;;;;4963464;28;20647;-76
2021/01/25 11:19:47;;;;;;;3.83;2.33;;;3.80;99.90;;;;;;4963824;28;20307;-77
2021/01/25 11:22:13;;;;;;;3.37;2.33;;;3.70;99.90;;;;;;4964559;28;20185;-76
2021/01/25 11:24:39;;;;;;;2.73;1.83;;;3.70;99.90;;;;;;4964077;28;20211;-76
2021/01/25 11:27:05;;;;;;;3.17;2.77;;;3.60;99.90;;;;;;4964276;28;20181;-76
2021/01/25 11:29:31;;;;;;;5.20;3.03;;;3.60;99.90;;;;;;4964357;28;20267;-76
2021/01/25 11:32:03;;;;;;;3.53;2.20;;;3.70;99.90;;;;;;4963261;28;20348;-76
2021/01/25 11:34:28;;;;;;;5.47;2.87;;;3.70;99.90;;;;;;4965106;28;20186;-76
2021/01/25 11:36:55;;;;;;;2.80;2.07;;;3.60;99.90;;;;;;4964621;28;20192;-76
2021/01/25 11:39:22;;;;;;;3.13;2.33;;;3.70;99.90;;;;;;4963083;28;20979;-76
2021/01/25 11:41:47;;;;;;;3.10;2.23;;;3.60;99.90;;;;;;4964976;28;20299;-76
2021/01/25 11:44:13;;;;;;;5.50;2.87;;;3.50;99.90;;;;;;4964428;28;20331;-76
2021/01/25 11:46:39;;;;;;;3.67;2.17;;;3.40;99.90;;;;;;4964402;28;20611;-76
2021/01/25 11:49:04;;;;;;;3.23;2.40;;;3.40;99.90;;;;;;4964464;28;20196;-76
2021/01/25 11:51:30;;;;;;;3.37;2.73;;;3.50;99.90;;;;;;4964505;28;20227;-76
2021/01/25 11:53:56;;;;;;;3.70;2.27;;;3.50;99.90;;;;;;4965680;28;20243;-76
2021/01/25 11:56:21;;;;;;;3.23;2.30;;;3.50;99.90;;;;;;4965780;28;20188;-76
2021/01/25 11:58:47;;;;;;;3.47;1.87;;;3.40;99.90;;;;;;4962470;28;20197;-76
2021/01/25 12:01:12;;;;;;;3.40;2.60;;;3.40;99.90;;;;;;4964538;28;20236;-76
2021/01/25 12:03:38;;;;;;;2.57;1.97;;;3.40;99.90;;;;;;4964368;28;20192;-76
2021/01/25 12:06:04;;;;;;;3.00;2.40;;;3.50;99.90;;;;;;4965358;28;20195;-76
2021/01/25 12:08:29;;;;;;;3.53;2.23;;;3.50;99.90;;;;;;4964551;28;20220;-76
2021/01/25 12:10:55;;;;;;;2.37;1.87;;;3.50;99.90;;;;;;4964004;28;20204;-76
2021/01/25 12:13:21;;;;;;;2.97;1.97;;;3.40;99.90;;;;;;4964346;28;20636;-76
2021/01/25 12:15:46;;;;;;;3.17;2.17;;;3.50;99.90;;;;;;4964835;28;20192;-76
2021/01/25 12:18:12;;;;;;;2.70;2.20;;;3.40;99.90;;;;;;4964566;28;20240;-76
2021/01/25 12:20:38;;;;;;;3.00;1.83;;;3.40;99.90;;;;;;4964518;28;20212;-76
2021/01/25 12:23:03;;;;;;;2.33;1.90;;;3.50;99.90;;;;;;4964554;28;20193;-76
2021/01/25 12:25:29;;;;;;;5.27;3.20;;;3.50;99.90;;;;;;4964439;28;20184;-76
2021/01/25 12:27:54;;;;;;;4.07;2.60;;;3.50;99.90;;;;;;4964472;28;20267;-76
2021/01/25 12:30:21;;;;;;;3.20;2.17;;;3.50;99.90;;;;;;4963061;28;20278;-76
2021/01/25 12:32:47;;;;;;;1.93;1.80;;;3.60;99.90;;;;;;4963316;28;20212;-76
2021/01/25 12:35:15;;;;;;;2.33;1.70;;;3.60;99.90;;;;;;4964444;28;20280;-76
2021/01/25 12:37:42;;;;;;;1.40;1.30;;;3.60;99.90;;;;;;4964909;28;20673;-76
2021/01/25 12:40:09;;;;;;;5.13;2.07;;;3.60;99.90;;;;;;4964574;28;20500;-76
2021/01/25 12:42:34;;;;;;;2.97;1.80;;;3.60;99.90;;;;;;4963444;28;20200;-76
2021/01/25 12:45:00;;;;;;;2.97;1.90;;;3.60;99.90;;;;;;4966533;28;20189;-76
2021/01/25 12:47:26;;;;;;;2.33;1.90;;;3.60;99.90;;;;;;4964135;28;20609;-76
2021/01/25 12:49:51;;;;;;;1.90;1.60;;;3.60;99.90;;;;;;4962899;28;20181;-75
2021/01/25 12:52:17;;;;;;;1.60;1.50;;;3.60;99.90;;;;;;4963385;28;20217;-76
2021/01/25 12:54:43;;;;;;;2.77;1.50;;;3.60;99.90;;;;;;4964584;28;20433;-76
2021/01/25 12:57:16;;;;;;;1.53;1.43;;;3.60;99.90;;;;;;5069556;28;20640;-75